createdAt,value
2018-02-04T00:02:07.810Z,98434
2018-02-04T00:04:38.250Z,98439
2018-02-04T00:07:08.640Z,98446
2018-02-04T00:09:39.040Z,98445
2018-02-04T00:12:09.331Z,98440
2018-02-04T00:14:39.545Z,98425
2018-02-04T00:17:10.026Z,98419
2018-02-04T00:19:40.291Z,98422
2018-02-04T00:22:10.518Z,98407
2018-02-04T00:24:40.978Z,98406
2018-02-04T00:27:11.744Z,98409
2018-02-04T00:29:42.051Z,98404
2018-02-04T00:32:12.077Z,98408
2018-02-04T00:34:42.030Z,98405
2018-02-04T00:37:12.746Z,98407
2018-02-04T00:39:43.215Z,98402
2018-02-04T00:42:13.652Z,98407
2018-02-04T00:44:43.687Z,98405
2018-02-04T00:47:14.100Z,98393
2018-02-04T00:49:44.292Z,98394
2018-02-04T00:52:14.817Z,98399
2018-02-04T00:54:45.215Z,98396
2018-02-04T00:57:15.476Z,98399
2018-02-04T00:59:45.888Z,98406
2018-02-04T01:02:16.120Z,98407
2018-02-04T01:04:46.682Z,98401
2018-02-04T01:07:17.160Z,98393
2018-02-04T01:09:47.416Z,98392
2018-02-04T01:12:17.969Z,98401
2018-02-04T01:14:48.370Z,98405
2018-02-04T01:17:18.895Z,98418
2018-02-04T01:19:49.496Z,98413
2018-02-04T01:22:19.931Z,98421
2018-02-04T01:24:50.126Z,98419
2018-02-04T01:27:20.339Z,98416
2018-02-04T01:29:51.750Z,98410
2018-02-04T01:32:21.741Z,98413
2018-02-04T01:34:52.169Z,98403
2018-02-04T01:37:22.750Z,98410
2018-02-04T01:39:53.466Z,98414
2018-02-04T01:42:23.838Z,98404
2018-02-04T01:44:54.222Z,98390
2018-02-04T01:47:24.046Z,98399
2018-02-04T01:49:54.796Z,98409
2018-02-04T01:52:24.653Z,98414
2018-02-04T01:54:54.830Z,98412
2018-02-04T01:57:24.849Z,98415
2018-02-04T01:59:55.133Z,98432
2018-02-04T02:02:25.535Z,98424
2018-02-04T02:04:55.700Z,98425
2018-02-04T02:07:25.724Z,98431
2018-02-04T02:09:56.164Z,98422
2018-02-04T02:12:26.562Z,98420
2018-02-04T02:14:57.090Z,98422
2018-02-04T02:17:27.536Z,98419
2018-02-04T02:19:58.034Z,98414
2018-02-04T02:22:28.112Z,98410
2018-02-04T02:24:58.509Z,98407
2018-02-04T02:27:29.026Z,98418
2018-02-04T02:29:59.183Z,98422
2018-02-04T02:32:29.436Z,98423
2018-02-04T02:34:59.808Z,98421
2018-02-04T02:37:30.290Z,98418
2018-02-04T02:40:00.892Z,98418
2018-02-04T02:42:31.312Z,98420
2018-02-04T02:45:01.552Z,98429
2018-02-04T02:47:32.032Z,98435
2018-02-04T02:50:02.616Z,98439
2018-02-04T02:52:32.736Z,98444
2018-02-04T02:55:03.207Z,98438
2018-02-04T02:57:33.520Z,98449
2018-02-04T03:00:03.916Z,98450
2018-02-04T03:02:34.680Z,98451
2018-02-04T03:05:05.183Z,98448
2018-02-04T03:07:35.724Z,98451
2018-02-04T03:10:06.036Z,98448
2018-02-04T03:12:36.709Z,98446
2018-02-04T03:15:07.077Z,98451
2018-02-04T03:17:37.981Z,98459
2018-02-04T03:20:07.730Z,98464
2018-02-04T03:22:37.972Z,98458
2018-02-04T03:25:08.499Z,98474
2018-02-04T03:27:39.273Z,98485
2018-02-04T03:30:09.713Z,98493
2018-02-04T03:32:39.975Z,98488
2018-02-04T03:35:10.435Z,98499
2018-02-04T03:37:40.871Z,98504
2018-02-04T03:40:12.211Z,98512
2018-02-04T03:42:42.565Z,98514
2018-02-04T03:45:12.729Z,98516
2018-02-04T03:47:43.140Z,98520
2018-02-04T03:50:13.312Z,98527
2018-02-04T03:52:43.176Z,98549
2018-02-04T03:55:13.559Z,98550
2018-02-04T03:57:44.122Z,98547
2018-02-04T04:00:14.622Z,98539
2018-02-04T04:02:45.052Z,98554
2018-02-04T04:05:15.261Z,98566
2018-02-04T04:07:45.673Z,98573
2018-02-04T04:10:16.762Z,98581
2018-02-04T04:12:47.829Z,98570
2018-02-04T04:15:17.647Z,98572
2018-02-04T04:17:47.960Z,98582
2018-02-04T04:20:18.496Z,98589
2018-02-04T04:22:48.785Z,98595
2018-02-04T04:25:20.200Z,98601
2018-02-04T04:27:51.070Z,98600
2018-02-04T04:30:21.747Z,98608
2018-02-04T04:32:52.098Z,98604
2018-02-04T04:35:21.976Z,98609
2018-02-04T04:37:52.022Z,98615
2018-02-04T04:40:22.478Z,98622
2018-02-04T04:42:52.925Z,98620
2018-02-04T04:45:22.904Z,98616
2018-02-04T04:47:53.049Z,98620
2018-02-04T04:50:23.423Z,98628
2018-02-04T04:52:53.714Z,98623
2018-02-04T04:55:24.054Z,98631
2018-02-04T04:57:54.480Z,98632
2018-02-04T05:00:24.717Z,98638
2018-02-04T05:02:55.086Z,98636
2018-02-04T05:05:24.787Z,98632
2018-02-04T05:07:54.540Z,98643
2018-02-04T05:10:24.324Z,98661
2018-02-04T05:12:54.151Z,98663
2018-02-04T05:15:23.881Z,98677
2018-02-04T05:17:53.604Z,98698
2018-02-04T05:20:23.364Z,98702
2018-02-04T05:22:53.128Z,98710
2018-02-04T05:25:22.859Z,98708
2018-02-04T05:27:52.607Z,98715
2018-02-04T05:30:22.321Z,98726
2018-02-04T05:32:52.109Z,98727
2018-02-04T05:35:21.836Z,98723
2018-02-04T05:37:51.649Z,98723
2018-02-04T05:40:21.469Z,98718
2018-02-04T05:42:51.256Z,98716
2018-02-04T05:45:20.983Z,98707
2018-02-04T05:47:50.688Z,98709
2018-02-04T05:50:20.542Z,98707
2018-02-04T05:52:50.352Z,98716
2018-02-04T05:55:20.164Z,98725
2018-02-04T05:57:49.946Z,98740
2018-02-04T06:00:19.828Z,98745
2018-02-04T06:02:49.578Z,98751
2018-02-04T06:05:19.279Z,98762
2018-02-04T06:07:48.987Z,98775
2018-02-04T06:10:18.734Z,98781
2018-02-04T06:12:48.483Z,98779
2018-02-04T06:15:18.267Z,98782
2018-02-04T06:17:48.131Z,98781
2018-02-04T06:20:17.901Z,98793
2018-02-04T06:22:47.715Z,98793
2018-02-04T06:25:17.545Z,98794
2018-02-04T06:27:47.273Z,98788
2018-02-04T06:30:17.010Z,98789
2018-02-04T06:32:46.817Z,98806
2018-02-04T06:35:16.512Z,98811
2018-02-04T06:37:46.292Z,98813
2018-02-04T06:40:16.100Z,98815
2018-02-04T06:42:45.836Z,98830
2018-02-04T06:45:15.543Z,98841
2018-02-04T06:47:45.226Z,98847
2018-02-04T06:50:15.064Z,98853
2018-02-04T06:52:44.814Z,98861
2018-02-04T06:55:14.585Z,98869
2018-02-04T06:57:44.371Z,98877
2018-02-04T07:00:14.169Z,98871
2018-02-04T07:02:43.965Z,98871
2018-02-04T07:05:13.719Z,98865
2018-02-04T07:07:43.439Z,98874
2018-02-04T07:10:13.195Z,98864
2018-02-04T07:12:42.995Z,98860
2018-02-04T07:15:12.761Z,98867
2018-02-04T07:17:42.537Z,98874
2018-02-04T07:20:12.236Z,98878
2018-02-04T07:22:42.104Z,98879
2018-02-04T07:25:11.805Z,98881
2018-02-04T07:27:41.512Z,98882
2018-02-04T07:30:11.429Z,98884
2018-02-04T07:32:41.229Z,98891
2018-02-04T07:35:10.911Z,98891
2018-02-04T07:37:40.723Z,98895
2018-02-04T07:40:10.513Z,98898
2018-02-04T07:42:40.387Z,98890
2018-02-04T07:45:10.108Z,98883
2018-02-04T07:47:39.835Z,98895
2018-02-04T07:50:09.643Z,98890
2018-02-04T07:52:39.455Z,98892
2018-02-04T07:55:09.294Z,98897
2018-02-04T07:57:39.169Z,98910
2018-02-04T08:00:09.030Z,98920
2018-02-04T08:02:38.856Z,98931
2018-02-04T08:05:08.529Z,98927
2018-02-04T08:07:38.217Z,98943
2018-02-04T08:10:08.036Z,98942
2018-02-04T08:12:37.934Z,98947
2018-02-04T08:15:07.714Z,98957
2018-02-04T08:17:37.559Z,98955
2018-02-04T08:20:07.401Z,98958
2018-02-04T08:22:37.278Z,98965
2018-02-04T08:25:07.097Z,98970
2018-02-04T08:27:36.817Z,98970
2018-02-04T08:30:06.595Z,98981
2018-02-04T08:32:36.434Z,98984
2018-02-04T08:35:06.151Z,98982
2018-02-04T08:37:36.013Z,98979
2018-02-04T08:40:05.777Z,98985
2018-02-04T08:42:35.580Z,98992
2018-02-04T08:45:05.387Z,98989
2018-02-04T08:47:35.111Z,98992
2018-02-04T08:50:04.881Z,98985
2018-02-04T08:52:34.679Z,98979
2018-02-04T08:55:04.433Z,98966
2018-02-04T08:57:34.271Z,98982
2018-02-04T09:00:04.028Z,98993
2018-02-04T09:02:33.795Z,99001
2018-02-04T09:05:03.524Z,98995
2018-02-04T09:07:33.238Z,98995
2018-02-04T09:10:03.040Z,98991
2018-02-04T09:12:32.735Z,98998
2018-02-04T09:15:02.599Z,99020
2018-02-04T09:17:32.414Z,99017
2018-02-04T09:20:02.257Z,99004
2018-02-04T09:22:32.036Z,99010
2018-02-04T09:25:01.726Z,99019
2018-02-04T09:27:31.432Z,99023
2018-02-04T09:30:01.201Z,99037
2018-02-04T09:32:30.959Z,99047
2018-02-04T09:35:00.707Z,99043
2018-02-04T09:37:30.432Z,99042
2018-02-04T09:40:00.350Z,99032
2018-02-04T09:42:30.155Z,99043
2018-02-04T09:44:59.852Z,99049
2018-02-04T09:47:29.605Z,99059
2018-02-04T09:49:59.384Z,99061
2018-02-04T09:52:29.184Z,99058
2018-02-04T09:54:58.978Z,99065
2018-02-04T09:57:28.705Z,99076
2018-02-04T09:59:58.567Z,99077
2018-02-04T10:02:28.333Z,99076
2018-02-04T10:04:58.032Z,99082
2018-02-04T10:07:27.765Z,99065
2018-02-04T10:09:57.547Z,99062
2018-02-04T10:12:27.288Z,99062
2018-02-04T10:14:57.121Z,99069
2018-02-04T10:17:26.893Z,99071
2018-02-04T10:19:56.664Z,99056
2018-02-04T10:22:26.575Z,99051
2018-02-04T10:24:56.352Z,99047
2018-02-04T10:27:26.147Z,99034
2018-02-04T10:29:55.916Z,99044
2018-02-04T10:32:25.677Z,99045
2018-02-04T10:34:55.368Z,99041
2018-02-04T10:37:25.149Z,99029
2018-02-04T10:39:54.904Z,99014
2018-02-04T10:42:24.675Z,99023
2018-02-04T10:44:54.416Z,99024
2018-02-04T10:47:24.831Z,99031
2018-02-04T10:49:55.147Z,99047
2018-02-04T10:52:24.932Z,99043
2018-02-04T10:54:55.329Z,99040
2018-02-04T10:57:25.614Z,99050
2018-02-04T10:59:55.664Z,99040
2018-02-04T11:02:26.029Z,99030
2018-02-04T11:04:56.994Z,99044
2018-02-04T11:07:27.194Z,99041
2018-02-04T11:09:56.990Z,99026
2018-02-04T11:12:27.442Z,99030
2018-02-04T11:14:57.550Z,99029
2018-02-04T11:17:27.977Z,99037
2018-02-04T11:19:59.796Z,99040
2018-02-04T11:22:29.665Z,99034
2018-02-04T11:25:00.117Z,99040
2018-02-04T11:27:30.806Z,99056
2018-02-04T11:30:01.251Z,99045
2018-02-04T11:32:31.743Z,99052
2018-02-04T11:35:01.969Z,99068
2018-02-04T11:37:32.232Z,99070
2018-02-04T11:40:02.589Z,99061
2018-02-04T11:42:32.454Z,99060
2018-02-04T11:45:02.723Z,99070
2018-02-04T11:47:32.917Z,99073
2018-02-04T11:50:03.177Z,99073
2018-02-04T11:52:33.394Z,99069
2018-02-04T11:55:03.194Z,99090
2018-02-04T11:57:33.044Z,99066
2018-02-04T12:00:03.904Z,99071
2018-02-04T12:02:34.180Z,99073
2018-02-04T12:05:04.932Z,99076
2018-02-04T12:07:35.720Z,99077
2018-02-04T12:10:06.189Z,99066
2018-02-04T12:12:37.572Z,99071
2018-02-04T12:15:07.957Z,99073
2018-02-04T12:17:38.530Z,99066
2018-02-04T12:20:09.071Z,99073
2018-02-04T12:22:40.257Z,99079
2018-02-04T12:25:10.957Z,99083
2018-02-04T12:27:41.473Z,99089
2018-02-04T12:30:11.987Z,99091
2018-02-04T12:32:42.463Z,99081
2018-02-04T12:35:15.752Z,99084
2018-02-04T12:37:45.885Z,99088
2018-02-04T12:40:15.707Z,99086
2018-02-04T12:42:46.192Z,99082
2018-02-04T12:45:16.584Z,99075
2018-02-04T12:47:46.527Z,99076
2018-02-04T12:50:16.616Z,99082
2018-02-04T12:52:46.865Z,99089
2018-02-04T12:55:17.411Z,99096
2018-02-04T12:57:48.629Z,99107
2018-02-04T13:00:19.095Z,99103
2018-02-04T13:02:49.744Z,99110
2018-02-04T13:05:19.918Z,99122
2018-02-04T13:07:50.303Z,99118
2018-02-04T13:10:20.099Z,99119
2018-02-04T13:12:49.847Z,99128
2018-02-04T13:15:19.596Z,99135
2018-02-04T13:17:49.510Z,99133
2018-02-04T13:20:19.992Z,99131
2018-02-04T13:22:51.115Z,99119
2018-02-04T13:25:20.821Z,99108
2018-02-04T13:27:50.568Z,99114
2018-02-04T13:30:20.453Z,99124
2018-02-04T13:32:50.415Z,99132
2018-02-04T13:35:20.887Z,99136
2018-02-04T13:37:50.709Z,99135
2018-02-04T13:40:20.630Z,99129
2018-02-04T13:42:51.226Z,99130
2018-02-04T13:45:21.611Z,99132
2018-02-04T13:47:52.289Z,99139
2018-02-04T13:50:22.724Z,99134
2018-02-04T13:52:54.192Z,99139
2018-02-04T13:55:24.801Z,99156
2018-02-04T13:57:55.238Z,99163
2018-02-04T14:00:25.774Z,99170
2018-02-04T14:02:56.154Z,99166
2018-02-04T14:05:26.529Z,99166
2018-02-04T14:07:56.783Z,99173
2018-02-04T14:10:27.528Z,99174
2018-02-04T14:12:57.582Z,99180
2018-02-04T14:15:28.105Z,99186
2018-02-04T14:17:58.341Z,99187
2018-02-04T14:20:28.968Z,99196
2018-02-04T14:22:59.293Z,99193
2018-02-04T14:25:29.630Z,99204
2018-02-04T14:28:00.169Z,99201
2018-02-04T14:30:30.419Z,99199
2018-02-04T14:33:00.662Z,99203
2018-02-04T14:35:31.263Z,99212
2018-02-04T14:38:01.579Z,99221
2018-02-04T14:40:31.674Z,99215
2018-02-04T14:43:02.119Z,99228
2018-02-04T14:45:32.670Z,99233
2018-02-04T14:48:03.600Z,99236
2018-02-04T14:50:33.902Z,99235
2018-02-04T14:53:04.414Z,99247
2018-02-04T14:55:34.653Z,99253
2018-02-04T14:58:05.154Z,99244
2018-02-04T15:00:35.818Z,99249
2018-02-04T15:03:06.431Z,99245
2018-02-04T15:05:37.086Z,99243
2018-02-04T15:08:07.035Z,99253
2018-02-04T15:10:37.122Z,99258
2018-02-04T15:13:07.634Z,99260
2018-02-04T15:15:38.383Z,99256
2018-02-04T15:18:08.917Z,99262
2018-02-04T15:20:39.232Z,99266
2018-02-04T15:23:09.798Z,99264
2018-02-04T15:25:39.680Z,99272
2018-02-04T15:28:09.529Z,99280
2018-02-04T15:30:39.280Z,99288
2018-02-04T15:33:09.077Z,99298
2018-02-04T15:35:38.800Z,99298
2018-02-04T15:38:08.629Z,99306
2018-02-04T15:40:38.371Z,99309
2018-02-04T15:43:08.410Z,99310
2018-02-04T15:45:38.273Z,99317
2018-02-04T15:48:08.032Z,99319
2018-02-04T15:50:37.779Z,99332
2018-02-04T15:53:07.602Z,99337
2018-02-04T15:55:37.456Z,99350
2018-02-04T15:58:07.218Z,99351
2018-02-04T16:00:36.939Z,99356
2018-02-04T16:03:06.707Z,99361
2018-02-04T16:05:36.519Z,99370
2018-02-04T16:08:06.365Z,99375
2018-02-04T16:10:36.059Z,99379
2018-02-04T16:13:05.833Z,99385
2018-02-04T16:15:35.630Z,99398
2018-02-04T16:18:05.400Z,99399
2018-02-04T16:20:35.222Z,99414
2018-02-04T16:23:04.988Z,99424
2018-02-04T16:25:34.727Z,99437
2018-02-04T16:28:04.587Z,99440
2018-02-04T16:30:34.275Z,99442
2018-02-04T16:33:04.076Z,99446
2018-02-04T16:35:33.861Z,99442
2018-02-04T16:38:03.571Z,99454
2018-02-04T16:40:33.389Z,99459
2018-02-04T16:43:03.155Z,99474
2018-02-04T16:45:32.998Z,99481
2018-02-04T16:48:02.764Z,99474
2018-02-04T16:50:32.476Z,99477
2018-02-04T16:53:02.259Z,99482
2018-02-04T16:55:32.035Z,99487
2018-02-04T16:58:01.844Z,99493
2018-02-04T17:00:31.583Z,99501
2018-02-04T17:03:01.399Z,99497
2018-02-04T17:05:31.187Z,99508
2018-02-04T17:08:00.979Z,99506
2018-02-04T17:10:30.762Z,99507
2018-02-04T17:13:00.542Z,99507
2018-02-04T17:15:30.381Z,99502
2018-02-04T17:18:00.194Z,99509
2018-02-04T17:20:30.016Z,99513
2018-02-04T17:22:59.801Z,99522
2018-02-04T17:25:29.733Z,99530
2018-02-04T17:27:59.520Z,99527
2018-02-04T17:30:29.303Z,99525
2018-02-04T17:32:59.076Z,99522
2018-02-04T17:35:28.809Z,99521
2018-02-04T17:37:58.577Z,99530
2018-02-04T17:40:28.399Z,99534
2018-02-04T17:42:58.126Z,99537
2018-02-04T17:45:27.925Z,99540
2018-02-04T17:47:57.766Z,99548
2018-02-04T17:50:27.540Z,99555
2018-02-04T17:52:57.414Z,99564
2018-02-04T17:55:27.236Z,99573
2018-02-04T17:57:57.150Z,99580
2018-02-04T18:00:26.888Z,99587
2018-02-04T18:02:56.679Z,99588
2018-02-04T18:05:26.465Z,99591
2018-02-04T18:07:56.178Z,99591
2018-02-04T18:10:25.989Z,99594
2018-02-04T18:12:55.697Z,99590
2018-02-04T18:15:25.539Z,99593
2018-02-04T18:17:55.310Z,99595
2018-02-04T18:20:25.162Z,99600
2018-02-04T18:22:55.114Z,99612
2018-02-04T18:25:24.931Z,99622
2018-02-04T18:27:54.694Z,99624
2018-02-04T18:30:24.514Z,99629
2018-02-04T18:32:54.340Z,99631
2018-02-04T18:35:24.127Z,99636
2018-02-04T18:37:53.894Z,99639
2018-02-04T18:40:23.751Z,99642
2018-02-04T18:42:53.618Z,99643
2018-02-04T18:45:23.550Z,99643
2018-02-04T18:47:53.385Z,99648
2018-02-04T18:50:23.186Z,99654
2018-02-04T18:52:52.981Z,99658
2018-02-04T18:55:22.848Z,99659
2018-02-04T18:57:52.711Z,99652
2018-02-04T19:00:22.480Z,99648
2018-02-04T19:02:52.320Z,99637
2018-02-04T19:05:22.268Z,99633
2018-02-04T19:07:52.109Z,99634
2018-02-04T19:10:21.936Z,99640
2018-02-04T19:12:51.769Z,99639
2018-02-04T19:15:22.147Z,99639
2018-02-04T19:17:52.323Z,99647
2018-02-04T19:20:22.496Z,99654
2018-02-04T19:22:52.389Z,99663
2018-02-04T19:25:22.318Z,99667
2018-02-04T19:27:52.143Z,99673
2018-02-04T19:30:21.993Z,99682
2018-02-04T19:32:51.925Z,99693
2018-02-04T19:35:22.049Z,99687
2018-02-04T19:37:52.020Z,99693
2018-02-04T19:40:21.799Z,99700
2018-02-04T19:42:51.618Z,99700
2018-02-04T19:45:21.475Z,99714
2018-02-04T19:47:51.329Z,99725
2018-02-04T19:50:21.106Z,99728
2018-02-04T19:52:50.861Z,99729
2018-02-04T19:55:20.662Z,99729
2018-02-04T19:57:50.477Z,99728
2018-02-04T20:00:20.188Z,99738
2018-02-04T20:02:49.934Z,99746
2018-02-04T20:05:19.724Z,99754
2018-02-04T20:07:49.497Z,99768
2018-02-04T20:10:19.337Z,99767
2018-02-04T20:12:49.100Z,99777
2018-02-04T20:15:18.854Z,99771
2018-02-04T20:17:48.738Z,99769
2018-02-04T20:20:18.504Z,99763
2018-02-04T20:22:48.331Z,99761
2018-02-04T20:25:18.123Z,99765
2018-02-04T20:27:47.930Z,99770
2018-02-04T20:30:18.061Z,99778
2018-02-04T20:32:59.651Z,99794
2018-02-04T20:35:29.470Z,99797
2018-02-04T20:37:59.295Z,99807
2018-02-04T20:40:29.105Z,99805
2018-02-04T20:42:58.972Z,99804
2018-02-04T20:45:28.775Z,99805
2018-02-04T20:47:58.705Z,99802
2018-02-04T20:50:28.424Z,99808
2018-02-04T20:52:58.337Z,99813
2018-02-04T20:55:28.129Z,99816
2018-02-04T20:57:57.851Z,99817
2018-02-04T21:00:27.950Z,99816
2018-02-04T21:02:57.758Z,99814
2018-02-04T21:05:27.626Z,99814
2018-02-04T21:07:57.387Z,99821
2018-02-04T21:10:27.132Z,99824
2018-02-04T21:12:56.917Z,99823
2018-02-04T21:15:26.743Z,99830
2018-02-04T21:17:56.578Z,99836
2018-02-04T21:20:26.375Z,99840
2018-02-04T21:22:56.260Z,99847
2018-02-04T21:25:26.090Z,99850
2018-02-04T21:27:55.947Z,99853
2018-02-04T21:30:25.674Z,99852
2018-02-04T21:32:55.476Z,99854
2018-02-04T21:35:25.277Z,99852
2018-02-04T21:37:55.026Z,99850
2018-02-04T21:40:24.849Z,99860
2018-02-04T21:42:54.635Z,99863
2018-02-04T21:45:24.407Z,99871
2018-02-04T21:47:54.116Z,99881
2018-02-04T21:50:23.881Z,99884
2018-02-04T21:52:53.694Z,99890
2018-02-04T21:55:23.545Z,99892
2018-02-04T21:57:53.517Z,99899
2018-02-04T22:00:23.246Z,99900
2018-02-04T22:02:52.998Z,99905
2018-02-04T22:05:22.821Z,99911
2018-02-04T22:07:52.592Z,99918
2018-02-04T22:10:22.325Z,99922
2018-02-04T22:12:52.098Z,99930
2018-02-04T22:15:21.874Z,99934
2018-02-04T22:17:51.782Z,99942
2018-02-04T22:20:21.523Z,99943
2018-02-04T22:22:51.281Z,99945
2018-02-04T22:25:21.052Z,99950
2018-02-04T22:27:51.617Z,99950
2018-02-04T22:30:22.095Z,99953
2018-02-04T22:32:52.587Z,99957
2018-02-04T22:35:23.102Z,99956
2018-02-04T22:37:53.555Z,99957
2018-02-04T22:40:23.557Z,99955
2018-02-04T22:42:53.980Z,99953
2018-02-04T22:45:24.490Z,99955
2018-02-04T22:47:55.203Z,99953
2018-02-04T22:50:25.539Z,99955
2018-02-04T22:52:56.014Z,99954
2018-02-04T22:55:26.168Z,99963
2018-02-04T22:57:56.763Z,99960
2018-02-04T23:00:27.276Z,99975
2018-02-04T23:02:57.607Z,99984
2018-02-04T23:05:28.102Z,99989
2018-02-04T23:07:58.360Z,99997
2018-02-04T23:10:28.579Z,99998
2018-02-04T23:12:59.030Z,99995
2018-02-04T23:15:29.369Z,99995
2018-02-04T23:18:00.037Z,100005
2018-02-04T23:20:30.425Z,99998
2018-02-04T23:23:00.560Z,100000
2018-02-04T23:25:31.030Z,99997
2018-02-04T23:28:01.912Z,100002
2018-02-04T23:30:32.443Z,100005
2018-02-04T23:33:02.771Z,100002
2018-02-04T23:35:33.195Z,100005
2018-02-04T23:38:03.419Z,100004
2018-02-04T23:40:33.769Z,100014
2018-02-04T23:43:04.343Z,100017
2018-02-04T23:45:34.985Z,100014
2018-02-04T23:48:05.474Z,100017
2018-02-04T23:50:35.939Z,100023
2018-02-04T23:53:06.398Z,100023
2018-02-04T23:55:36.814Z,100019
2018-02-04T23:58:07.236Z,100023
